To NAV CANADA Home Page Login to a new session Search on AWWS site Disclaimer Vers la page française équivalente Tips FAQ What's new on the site To the Forecasts and Observations / NOTAM section To "File a Flight Plan" website Publications and other links Update of the User's profile FIC Telephone Numbers My Weather Data Folder Route Weather Data Regional Weather Data Local Weather Data To the Forecasts and Observations / NOTAM section
Request Generated 07/30/2021 at 06:38:30 UTC . Weather information available at that time is displayed.

METAR/TAF

PETERBOROUGH/ON    (show WxCam)

METAR CYPQ 300600Z AUTO 32008KT 9SM SCT100 17/16 A2981 RMK SLP095 DENSITY ALT 1100FT=
METAR CYPQ 300500Z AUTO 31006KT 9SM BKN110 16/16 A2980 RMK SLP093 DENSITY ALT 1100FT=
SPECI CYPQ 300448Z AUTO 29004KT 9SM FEW110 16/16 A2980 RMK SLP094 DENSITY ALT 1100FT=
SPECI CYPQ 300429Z AUTO VRB02KT 5SM BR FEW009 SCT110 16/16 A2980 RMK SLP095 DENSITY ALT 1000FT=
METAR CYPQ 300400Z AUTO 00000KT 9SM FEW017 BKN100 BKN120 17/17 A2980 RMK SLP091 DENSITY ALT 1200FT=

*** REMARK        : Forecast period has ended; this was the last TAF issued
*** REMARQUE : La période de prévision est échue; ceci était le dernier TAF qui a été émis
TAF AMD CYPQ 300127Z 3001/3002 VRB03KT P6SM SKC TEMPO 3001/3002 5SM
BR BKN020
RMK FCST BASED ON AUTO OBS. NXT FCST WILL BE ISSUED AT 300945Z=
Your time UTC time
Weather data provided by Environment Canada and NAV CANADA